sensor_id;sensor_type;location;lat;lon;timestamp;P1;durP1;ratioP1;P2;durP2;ratioP2
41043;SDS011;51680;49.806;18.774;2022-10-16T00:02:16;9.15;;;5.47;;
41043;SDS011;51680;49.806;18.774;2022-10-16T00:05:18;9.93;;;5.82;;
41043;SDS011;51680;49.806;18.774;2022-10-16T00:08:20;8.00;;;5.80;;
41043;SDS011;51680;49.806;18.774;2022-10-16T00:11:23;10.70;;;5.85;;
41043;SDS011;51680;49.806;18.774;2022-10-16T00:14:27;12.23;;;5.90;;
41043;SDS011;51680;49.806;18.774;2022-10-16T00:17:29;14.70;;;6.13;;
41043;SDS011;51680;49.806;18.774;2022-10-16T00:20:33;10.80;;;6.05;;
41043;SDS011;51680;49.806;18.774;2022-10-16T00:23:36;13.38;;;5.93;;
41043;SDS011;51680;49.806;18.774;2022-10-16T00:26:40;9.65;;;5.85;;
41043;SDS011;51680;49.806;18.774;2022-10-16T00:29:42;12.13;;;6.10;;
41043;SDS011;51680;49.806;18.774;2022-10-16T00:32:44;13.77;;;6.70;;
41043;SDS011;51680;49.806;18.774;2022-10-16T00:35:46;15.70;;;6.43;;
41043;SDS011;51680;49.806;18.774;2022-10-16T00:38:49;11.98;;;6.38;;
41043;SDS011;51680;49.806;18.774;2022-10-16T00:41:54;12.18;;;6.60;;
41043;SDS011;51680;49.806;18.774;2022-10-16T00:44:56;18.40;;;6.32;;
41043;SDS011;51680;49.806;18.774;2022-10-16T00:47:58;11.93;;;6.40;;
41043;SDS011;51680;49.806;18.774;2022-10-16T00:51:00;10.07;;;6.03;;
41043;SDS011;51680;49.806;18.774;2022-10-16T00:54:03;9.70;;;6.40;;
41043;SDS011;51680;49.806;18.774;2022-10-16T00:57:10;15.65;;;5.88;;
41043;SDS011;51680;49.806;18.774;2022-10-16T01:00:14;13.83;;;6.67;;
41043;SDS011;51680;49.806;18.774;2022-10-16T01:03:22;13.13;;;6.70;;
41043;SDS011;51680;49.806;18.774;2022-10-16T01:06:28;11.07;;;6.60;;
41043;SDS011;51680;49.806;18.774;2022-10-16T01:09:42;12.85;;;6.43;;
41043;SDS011;51680;49.806;18.774;2022-10-16T01:12:55;15.90;;;6.70;;
41043;SDS011;51680;49.806;18.774;2022-10-16T01:16:01;11.05;;;6.85;;
41043;SDS011;51680;49.806;18.774;2022-10-16T01:19:09;12.52;;;6.60;;
41043;SDS011;51680;49.806;18.774;2022-10-16T01:22:15;12.35;;;6.20;;
41043;SDS011;51680;49.806;18.774;2022-10-16T01:25:22;12.32;;;7.25;;
41043;SDS011;51680;49.806;18.774;2022-10-16T01:28:34;11.40;;;7.05;;
41043;SDS011;51680;49.806;18.774;2022-10-16T01:31:40;10.50;;;6.50;;
41043;SDS011;51680;49.806;18.774;2022-10-16T01:34:49;11.30;;;5.90;;
41043;SDS011;51680;49.806;18.774;2022-10-16T01:37:55;13.07;;;5.90;;
41043;SDS011;51680;49.806;18.774;2022-10-16T01:41:02;18.73;;;7.22;;
41043;SDS011;51680;49.806;18.774;2022-10-16T01:44:12;14.18;;;6.63;;
41043;SDS011;51680;49.806;18.774;2022-10-16T01:47:17;10.77;;;6.30;;
41043;SDS011;51680;49.806;18.774;2022-10-16T01:50:23;15.07;;;7.15;;
41043;SDS011;51680;49.806;18.774;2022-10-16T01:53:26;14.68;;;7.88;;
41043;SDS011;51680;49.806;18.774;2022-10-16T01:56:28;11.65;;;5.50;;
41043;SDS011;51680;49.806;18.774;2022-10-16T01:59:32;18.45;;;7.00;;
41043;SDS011;51680;49.806;18.774;2022-10-16T02:02:38;13.60;;;7.10;;
41043;SDS011;51680;49.806;18.774;2022-10-16T02:05:42;16.63;;;8.13;;
41043;SDS011;51680;49.806;18.774;2022-10-16T02:08:47;9.82;;;6.88;;
41043;SDS011;51680;49.806;18.774;2022-10-16T02:11:49;11.50;;;7.15;;
41043;SDS011;51680;49.806;18.774;2022-10-16T02:14:56;14.90;;;7.22;;
41043;SDS011;51680;49.806;18.774;2022-10-16T02:17:58;12.88;;;7.63;;
41043;SDS011;51680;49.806;18.774;2022-10-16T02:21:01;13.13;;;7.40;;
41043;SDS011;51680;49.806;18.774;2022-10-16T02:24:11;11.82;;;7.38;;
41043;SDS011;51680;49.806;18.774;2022-10-16T02:27:19;15.30;;;7.80;;
41043;SDS011;51680;49.806;18.774;2022-10-16T02:30:29;11.60;;;7.28;;
41043;SDS011;51680;49.806;18.774;2022-10-16T02:33:35;32.53;;;7.80;;
41043;SDS011;51680;49.806;18.774;2022-10-16T02:36:40;17.00;;;7.80;;
41043;SDS011;51680;49.806;18.774;2022-10-16T02:39:43;12.40;;;8.00;;
41043;SDS011;51680;49.806;18.774;2022-10-16T02:42:49;12.95;;;7.45;;
41043;SDS011;51680;49.806;18.774;2022-10-16T02:45:53;12.75;;;7.10;;
41043;SDS011;51680;49.806;18.774;2022-10-16T02:48:55;9.68;;;5.47;;
41043;SDS011;51680;49.806;18.774;2022-10-16T02:51:57;15.93;;;7.53;;
41043;SDS011;51680;49.806;18.774;2022-10-16T02:54:59;13.35;;;7.30;;
41043;SDS011;51680;49.806;18.774;2022-10-16T02:58:01;14.25;;;6.28;;
41043;SDS011;51680;49.806;18.774;2022-10-16T03:01:04;11.07;;;7.55;;
41043;SDS011;51680;49.806;18.774;2022-10-16T03:04:05;11.70;;;6.83;;
41043;SDS011;51680;49.806;18.774;2022-10-16T03:07:07;15.63;;;7.25;;
41043;SDS011;51680;49.806;18.774;2022-10-16T03:10:09;13.75;;;7.68;;
41043;SDS011;51680;49.806;18.774;2022-10-16T03:13:11;10.90;;;6.78;;
41043;SDS011;51680;49.806;18.774;2022-10-16T03:16:14;11.80;;;6.82;;
41043;SDS011;51680;49.806;18.774;2022-10-16T03:19:16;13.65;;;7.82;;
41043;SDS011;51680;49.806;18.774;2022-10-16T03:22:18;11.95;;;7.57;;
41043;SDS011;51680;49.806;18.774;2022-10-16T03:25:19;11.35;;;7.20;;
41043;SDS011;51680;49.806;18.774;2022-10-16T03:28:21;14.73;;;7.63;;
41043;SDS011;51680;49.806;18.774;2022-10-16T03:31:24;10.40;;;7.10;;
41043;SDS011;51680;49.806;18.774;2022-10-16T03:34:26;11.93;;;7.03;;
41043;SDS011;51680;49.806;18.774;2022-10-16T03:37:28;12.90;;;6.85;;
41043;SDS011;51680;49.806;18.774;2022-10-16T03:40:30;13.80;;;7.38;;
41043;SDS011;51680;49.806;18.774;2022-10-16T03:43:32;15.57;;;7.18;;
41043;SDS011;51680;49.806;18.774;2022-10-16T03:46:35;13.82;;;7.47;;
41043;SDS011;51680;49.806;18.774;2022-10-16T03:49:37;11.15;;;6.85;;
41043;SDS011;51680;49.806;18.774;2022-10-16T03:52:38;14.63;;;6.75;;
41043;SDS011;51680;49.806;18.774;2022-10-16T03:55:40;12.10;;;7.40;;
41043;SDS011;51680;49.806;18.774;2022-10-16T03:58:42;10.43;;;6.72;;
41043;SDS011;51680;49.806;18.774;2022-10-16T04:01:46;14.05;;;6.07;;
41043;SDS011;51680;49.806;18.774;2022-10-16T04:04:47;16.03;;;7.63;;
41043;SDS011;51680;49.806;18.774;2022-10-16T04:07:49;16.38;;;8.38;;
41043;SDS011;51680;49.806;18.774;2022-10-16T04:10:51;14.73;;;7.70;;
41043;SDS011;51680;49.806;18.774;2022-10-16T04:13:53;12.77;;;7.18;;
41043;SDS011;51680;49.806;18.774;2022-10-16T04:16:56;11.73;;;7.22;;
41043;SDS011;51680;49.806;18.774;2022-10-16T04:19:57;13.88;;;6.10;;
41043;SDS011;51680;49.806;18.774;2022-10-16T04:22:59;10.48;;;6.53;;
41043;SDS011;51680;49.806;18.774;2022-10-16T04:26:01;9.38;;;5.20;;
41043;SDS011;51680;49.806;18.774;2022-10-16T04:29:03;9.10;;;5.50;;
41043;SDS011;51680;49.806;18.774;2022-10-16T04:32:06;10.45;;;6.78;;
41043;SDS011;51680;49.806;18.774;2022-10-16T04:35:09;12.85;;;6.32;;
41043;SDS011;51680;49.806;18.774;2022-10-16T04:38:11;12.80;;;6.32;;
41043;SDS011;51680;49.806;18.774;2022-10-16T04:41:13;14.00;;;6.35;;
41043;SDS011;51680;49.806;18.774;2022-10-16T04:44:14;11.00;;;6.70;;
41043;SDS011;51680;49.806;18.774;2022-10-16T04:47:18;12.13;;;6.53;;
41043;SDS011;51680;49.806;18.774;2022-10-16T04:50:19;11.73;;;6.10;;
41043;SDS011;51680;49.806;18.774;2022-10-16T04:53:38;11.30;;;6.43;;
41043;SDS011;51680;49.806;18.774;2022-10-16T04:56:40;22.73;;;6.68;;
41043;SDS011;51680;49.806;18.774;2022-10-16T04:59:47;11.63;;;6.50;;
41043;SDS011;51680;49.806;18.774;2022-10-16T05:02:50;12.02;;;5.78;;
41043;SDS011;51680;49.806;18.774;2022-10-16T05:05:52;12.18;;;6.30;;
41043;SDS011;51680;49.806;18.774;2022-10-16T05:08:54;12.45;;;4.35;;
41043;SDS011;51680;49.806;18.774;2022-10-16T05:11:56;10.93;;;6.50;;
41043;SDS011;51680;49.806;18.774;2022-10-16T05:14:57;12.55;;;7.47;;
41043;SDS011;51680;49.806;18.774;2022-10-16T05:18:00;10.55;;;6.70;;
41043;SDS011;51680;49.806;18.774;2022-10-16T05:21:03;12.88;;;6.20;;
41043;SDS011;51680;49.806;18.774;2022-10-16T05:24:05;7.30;;;4.25;;
41043;SDS011;51680;49.806;18.774;2022-10-16T05:27:26;9.52;;;5.35;;
41043;SDS011;51680;49.806;18.774;2022-10-16T05:30:28;7.50;;;3.70;;
41043;SDS011;51680;49.806;18.774;2022-10-16T05:33:31;12.07;;;6.05;;
41043;SDS011;51680;49.806;18.774;2022-10-16T05:36:33;12.27;;;6.40;;
41043;SDS011;51680;49.806;18.774;2022-10-16T05:39:35;12.63;;;5.80;;
41043;SDS011;51680;49.806;18.774;2022-10-16T05:42:37;10.70;;;6.13;;
41043;SDS011;51680;49.806;18.774;2022-10-16T05:45:39;8.82;;;6.28;;
41043;SDS011;51680;49.806;18.774;2022-10-16T05:48:42;11.55;;;7.25;;
41043;SDS011;51680;49.806;18.774;2022-10-16T05:51:44;10.07;;;6.40;;
41043;SDS011;51680;49.806;18.774;2022-10-16T05:54:45;10.88;;;5.38;;
41043;SDS011;51680;49.806;18.774;2022-10-16T05:57:47;11.68;;;6.85;;
41043;SDS011;51680;49.806;18.774;2022-10-16T06:00:52;12.10;;;5.53;;
41043;SDS011;51680;49.806;18.774;2022-10-16T06:03:56;11.45;;;6.90;;
41043;SDS011;51680;49.806;18.774;2022-10-16T06:06:58;8.65;;;4.50;;
41043;SDS011;51680;49.806;18.774;2022-10-16T06:10:01;6.75;;;4.13;;
41043;SDS011;51680;49.806;18.774;2022-10-16T06:13:04;10.80;;;6.07;;
41043;SDS011;51680;49.806;18.774;2022-10-16T06:16:06;16.00;;;6.05;;
41043;SDS011;51680;49.806;18.774;2022-10-16T06:19:09;11.45;;;5.35;;
41043;SDS011;51680;49.806;18.774;2022-10-16T06:22:11;10.30;;;5.10;;
41043;SDS011;51680;49.806;18.774;2022-10-16T06:25:13;12.43;;;6.03;;
41043;SDS011;51680;49.806;18.774;2022-10-16T06:28:15;9.18;;;4.55;;
41043;SDS011;51680;49.806;18.774;2022-10-16T06:31:17;12.32;;;5.25;;
41043;SDS011;51680;49.806;18.774;2022-10-16T06:34:20;10.85;;;5.22;;
41043;SDS011;51680;49.806;18.774;2022-10-16T06:37:22;13.33;;;6.00;;
41043;SDS011;51680;49.806;18.774;2022-10-16T06:40:25;10.80;;;5.72;;
41043;SDS011;51680;49.806;18.774;2022-10-16T06:43:28;10.13;;;5.55;;
41043;SDS011;51680;49.806;18.774;2022-10-16T06:46:32;8.73;;;5.53;;
41043;SDS011;51680;49.806;18.774;2022-10-16T06:49:35;10.18;;;5.75;;
41043;SDS011;51680;49.806;18.774;2022-10-16T06:52:37;12.00;;;5.57;;
41043;SDS011;51680;49.806;18.774;2022-10-16T06:55:38;9.63;;;5.05;;
41043;SDS011;51680;49.806;18.774;2022-10-16T06:58:40;11.35;;;5.85;;
41043;SDS011;51680;49.806;18.774;2022-10-16T07:01:43;14.38;;;6.18;;
41043;SDS011;51680;49.806;18.774;2022-10-16T07:04:46;11.52;;;5.72;;
41043;SDS011;51680;49.806;18.774;2022-10-16T07:07:48;10.03;;;5.27;;
41043;SDS011;51680;49.806;18.774;2022-10-16T07:10:57;9.13;;;5.72;;
41043;SDS011;51680;49.806;18.774;2022-10-16T07:14:00;9.82;;;5.53;;
41043;SDS011;51680;49.806;18.774;2022-10-16T07:17:02;11.07;;;5.72;;
41043;SDS011;51680;49.806;18.774;2022-10-16T07:20:06;9.45;;;5.72;;
41043;SDS011;51680;49.806;18.774;2022-10-16T07:23:08;10.25;;;5.00;;
41043;SDS011;51680;49.806;18.774;2022-10-16T07:26:10;12.43;;;6.15;;
41043;SDS011;51680;49.806;18.774;2022-10-16T07:29:12;10.65;;;5.53;;
41043;SDS011;51680;49.806;18.774;2022-10-16T07:32:15;10.82;;;5.68;;
41043;SDS011;51680;49.806;18.774;2022-10-16T07:35:18;11.65;;;6.40;;
41043;SDS011;51680;49.806;18.774;2022-10-16T07:38:20;12.60;;;5.90;;
41043;SDS011;51680;49.806;18.774;2022-10-16T07:41:23;15.23;;;5.53;;
41043;SDS011;51680;49.806;18.774;2022-10-16T07:44:24;9.77;;;5.38;;
41043;SDS011;51680;49.806;18.774;2022-10-16T07:47:26;7.60;;;4.90;;
41043;SDS011;51680;49.806;18.774;2022-10-16T07:50:29;9.23;;;6.00;;
41043;SDS011;51680;49.806;18.774;2022-10-16T07:53:31;10.47;;;5.37;;
41043;SDS011;51680;49.806;18.774;2022-10-16T07:56:33;11.68;;;5.93;;
41043;SDS011;51680;49.806;18.774;2022-10-16T07:59:35;12.80;;;5.85;;
41043;SDS011;51680;49.806;18.774;2022-10-16T08:02:36;10.43;;;6.00;;
41043;SDS011;51680;49.806;18.774;2022-10-16T08:05:39;8.63;;;4.68;;
41043;SDS011;51680;49.806;18.774;2022-10-16T08:08:42;13.52;;;6.43;;
41043;SDS011;51680;49.806;18.774;2022-10-16T08:12:03;9.40;;;5.38;;
41043;SDS011;51680;49.806;18.774;2022-10-16T08:15:05;10.05;;;6.40;;
41043;SDS011;51680;49.806;18.774;2022-10-16T08:18:08;11.82;;;6.10;;
41043;SDS011;51680;49.806;18.774;2022-10-16T08:21:13;8.27;;;5.10;;
41043;SDS011;51680;49.806;18.774;2022-10-16T08:24:16;9.30;;;5.70;;
41043;SDS011;51680;49.806;18.774;2022-10-16T08:27:18;10.77;;;5.78;;
41043;SDS011;51680;49.806;18.774;2022-10-16T08:30:21;10.77;;;5.88;;
41043;SDS011;51680;49.806;18.774;2022-10-16T08:33:23;12.95;;;6.05;;
41043;SDS011;51680;49.806;18.774;2022-10-16T08:36:26;9.68;;;5.75;;
41043;SDS011;51680;49.806;18.774;2022-10-16T08:39:28;9.73;;;5.67;;
41043;SDS011;51680;49.806;18.774;2022-10-16T08:42:33;8.43;;;5.78;;
41043;SDS011;51680;49.806;18.774;2022-10-16T08:45:47;9.98;;;5.53;;
41043;SDS011;51680;49.806;18.774;2022-10-16T08:49:01;9.43;;;5.70;;
41043;SDS011;51680;49.806;18.774;2022-10-16T08:52:06;12.05;;;6.82;;
41043;SDS011;51680;49.806;18.774;2022-10-16T08:55:17;11.10;;;6.30;;
41043;SDS011;51680;49.806;18.774;2022-10-16T08:58:29;9.50;;;5.25;;
41043;SDS011;51680;49.806;18.774;2022-10-16T09:01:34;8.55;;;5.70;;
41043;SDS011;51680;49.806;18.774;2022-10-16T09:04:46;9.95;;;5.80;;
41043;SDS011;51680;49.806;18.774;2022-10-16T09:08:01;10.25;;;6.38;;
41043;SDS011;51680;49.806;18.774;2022-10-16T09:11:11;11.85;;;6.22;;
41043;SDS011;51680;49.806;18.774;2022-10-16T09:14:38;8.82;;;4.85;;
41043;SDS011;51680;49.806;18.774;2022-10-16T09:17:56;13.45;;;6.10;;
41043;SDS011;51680;49.806;18.774;2022-10-16T09:21:06;9.32;;;5.90;;
41043;SDS011;51680;49.806;18.774;2022-10-16T09:24:17;10.45;;;5.97;;
41043;SDS011;51680;49.806;18.774;2022-10-16T09:27:20;10.70;;;5.57;;
41043;SDS011;51680;49.806;18.774;2022-10-16T09:30:22;11.20;;;5.78;;
41043;SDS011;51680;49.806;18.774;2022-10-16T09:33:28;9.60;;;6.22;;
41043;SDS011;51680;49.806;18.774;2022-10-16T09:36:36;13.18;;;6.07;;
41043;SDS011;51680;49.806;18.774;2022-10-16T09:39:46;8.10;;;5.68;;
41043;SDS011;51680;49.806;18.774;2022-10-16T09:42:49;10.65;;;6.10;;
41043;SDS011;51680;49.806;18.774;2022-10-16T09:45:58;8.20;;;5.97;;
41043;SDS011;51680;49.806;18.774;2022-10-16T09:49:02;15.93;;;6.47;;
41043;SDS011;51680;49.806;18.774;2022-10-16T09:55:14;11.38;;;5.97;;
41043;SDS011;51680;49.806;18.774;2022-10-16T09:58:20;9.95;;;5.53;;
41043;SDS011;51680;49.806;18.774;2022-10-16T10:01:24;10.20;;;5.93;;
41043;SDS011;51680;49.806;18.774;2022-10-16T10:04:37;11.60;;;5.93;;
41043;SDS011;51680;49.806;18.774;2022-10-16T10:07:42;12.00;;;5.40;;
41043;SDS011;51680;49.806;18.774;2022-10-16T10:10:47;12.68;;;6.07;;
41043;SDS011;51680;49.806;18.774;2022-10-16T10:16:52;16.80;;;6.13;;
41043;SDS011;51680;49.806;18.774;2022-10-16T10:20:14;13.65;;;5.70;;
41043;SDS011;51680;49.806;18.774;2022-10-16T10:23:24;14.40;;;5.93;;
41043;SDS011;51680;49.806;18.774;2022-10-16T10:26:30;8.68;;;5.78;;
41043;SDS011;51680;49.806;18.774;2022-10-16T10:29:40;10.50;;;6.05;;
41043;SDS011;51680;49.806;18.774;2022-10-16T10:32:57;11.65;;;5.75;;
41043;SDS011;51680;49.806;18.774;2022-10-16T10:36:24;9.07;;;5.82;;
41043;SDS011;51680;49.806;18.774;2022-10-16T10:39:32;9.25;;;5.20;;
41043;SDS011;51680;49.806;18.774;2022-10-16T10:42:43;8.57;;;6.10;;
41043;SDS011;51680;49.806;18.774;2022-10-16T10:45:52;13.63;;;6.35;;
41043;SDS011;51680;49.806;18.774;2022-10-16T10:49:03;16.42;;;6.63;;
41043;SDS011;51680;49.806;18.774;2022-10-16T10:52:24;10.65;;;6.63;;
41043;SDS011;51680;49.806;18.774;2022-10-16T10:55:37;12.23;;;6.03;;
41043;SDS011;51680;49.806;18.774;2022-10-16T10:58:48;12.82;;;5.97;;
41043;SDS011;51680;49.806;18.774;2022-10-16T11:01:59;10.65;;;5.78;;
41043;SDS011;51680;49.806;18.774;2022-10-16T11:05:17;10.63;;;6.38;;
41043;SDS011;51680;49.806;18.774;2022-10-16T11:08:32;12.05;;;5.63;;
41043;SDS011;51680;49.806;18.774;2022-10-16T11:11:38;9.88;;;5.60;;
41043;SDS011;51680;49.806;18.774;2022-10-16T11:14:48;9.45;;;5.82;;
41043;SDS011;51680;49.806;18.774;2022-10-16T11:17:59;9.40;;;5.72;;
41043;SDS011;51680;49.806;18.774;2022-10-16T11:21:05;8.80;;;5.85;;
41043;SDS011;51680;49.806;18.774;2022-10-16T11:24:13;10.85;;;6.18;;
41043;SDS011;51680;49.806;18.774;2022-10-16T11:27:21;11.57;;;6.43;;
41043;SDS011;51680;49.806;18.774;2022-10-16T11:30:30;9.90;;;5.75;;
41043;SDS011;51680;49.806;18.774;2022-10-16T11:33:36;10.77;;;5.70;;
41043;SDS011;51680;49.806;18.774;2022-10-16T11:36:43;12.38;;;5.65;;
41043;SDS011;51680;49.806;18.774;2022-10-16T11:39:49;12.50;;;6.32;;
41043;SDS011;51680;49.806;18.774;2022-10-16T11:42:54;15.93;;;6.70;;
41043;SDS011;51680;49.806;18.774;2022-10-16T11:46:02;8.70;;;6.35;;
41043;SDS011;51680;49.806;18.774;2022-10-16T11:49:11;11.05;;;6.63;;
41043;SDS011;51680;49.806;18.774;2022-10-16T11:52:19;10.18;;;6.80;;
41043;SDS011;51680;49.806;18.774;2022-10-16T11:55:26;9.73;;;6.90;;
41043;SDS011;51680;49.806;18.774;2022-10-16T11:58:33;12.50;;;6.30;;
41043;SDS011;51680;49.806;18.774;2022-10-16T12:01:41;10.20;;;6.80;;
41043;SDS011;51680;49.806;18.774;2022-10-16T12:04:48;15.40;;;7.05;;
41043;SDS011;51680;49.806;18.774;2022-10-16T12:08:02;12.13;;;7.60;;
41043;SDS011;51680;49.806;18.774;2022-10-16T12:11:19;11.02;;;6.45;;
41043;SDS011;51680;49.806;18.774;2022-10-16T12:14:35;14.60;;;6.60;;
41043;SDS011;51680;49.806;18.774;2022-10-16T12:17:40;14.70;;;6.93;;
41043;SDS011;51680;49.806;18.774;2022-10-16T12:20:41;9.75;;;6.05;;
41043;SDS011;51680;49.806;18.774;2022-10-16T12:23:47;10.57;;;6.40;;
41043;SDS011;51680;49.806;18.774;2022-10-16T12:26:50;7.70;;;4.63;;
41043;SDS011;51680;49.806;18.774;2022-10-16T12:29:54;12.30;;;7.30;;
41043;SDS011;51680;49.806;18.774;2022-10-16T12:33:00;13.40;;;6.88;;
41043;SDS011;51680;49.806;18.774;2022-10-16T12:36:04;9.07;;;6.38;;
41043;SDS011;51680;49.806;18.774;2022-10-16T12:39:16;16.20;;;7.35;;
41043;SDS011;51680;49.806;18.774;2022-10-16T12:42:30;14.73;;;7.07;;
41043;SDS011;51680;49.806;18.774;2022-10-16T12:45:34;12.25;;;6.82;;
41043;SDS011;51680;49.806;18.774;2022-10-16T12:48:38;9.23;;;6.28;;
41043;SDS011;51680;49.806;18.774;2022-10-16T12:51:42;12.98;;;6.53;;
41043;SDS011;51680;49.806;18.774;2022-10-16T12:54:44;16.15;;;7.80;;
41043;SDS011;51680;49.806;18.774;2022-10-16T12:57:49;10.70;;;6.85;;
41043;SDS011;51680;49.806;18.774;2022-10-16T13:01:26;14.77;;;7.07;;
41043;SDS011;51680;49.806;18.774;2022-10-16T13:04:52;11.30;;;6.95;;
41043;SDS011;51680;49.806;18.774;2022-10-16T13:08:14;11.85;;;7.00;;
41043;SDS011;51680;49.806;18.774;2022-10-16T13:11:31;15.98;;;7.97;;
41043;SDS011;51680;49.806;18.774;2022-10-16T13:18:19;14.00;;;7.38;;
41043;SDS011;51680;49.806;18.774;2022-10-16T13:21:35;9.20;;;6.43;;
41043;SDS011;51680;49.806;18.774;2022-10-16T13:24:49;13.43;;;7.38;;
41043;SDS011;51680;49.806;18.774;2022-10-16T13:27:59;13.82;;;7.13;;
41043;SDS011;51680;49.806;18.774;2022-10-16T13:31:02;10.15;;;6.60;;
41043;SDS011;51680;49.806;18.774;2022-10-16T13:34:05;11.13;;;6.95;;
41043;SDS011;51680;49.806;18.774;2022-10-16T13:37:18;12.13;;;7.15;;
41043;SDS011;51680;49.806;18.774;2022-10-16T13:40:21;13.40;;;7.43;;
41043;SDS011;51680;49.806;18.774;2022-10-16T13:43:25;10.80;;;7.07;;
41043;SDS011;51680;49.806;18.774;2022-10-16T13:46:30;13.38;;;6.05;;
41043;SDS011;51680;49.806;18.774;2022-10-16T13:49:34;13.25;;;7.20;;
41043;SDS011;51680;49.806;18.774;2022-10-16T13:52:37;14.60;;;7.18;;
41043;SDS011;51680;49.806;18.774;2022-10-16T13:55:39;9.52;;;6.32;;
41043;SDS011;51680;49.806;18.774;2022-10-16T13:58:41;8.38;;;5.53;;
41043;SDS011;51680;49.806;18.774;2022-10-16T14:01:44;7.80;;;5.27;;
41043;SDS011;51680;49.806;18.774;2022-10-16T14:04:46;10.45;;;6.95;;
41043;SDS011;51680;49.806;18.774;2022-10-16T14:07:50;11.25;;;7.07;;
41043;SDS011;51680;49.806;18.774;2022-10-16T14:10:55;10.57;;;6.85;;
41043;SDS011;51680;49.806;18.774;2022-10-16T14:13:58;13.85;;;7.60;;
41043;SDS011;51680;49.806;18.774;2022-10-16T14:17:00;10.05;;;7.13;;
41043;SDS011;51680;49.806;18.774;2022-10-16T14:20:04;15.00;;;7.47;;
41043;SDS011;51680;49.806;18.774;2022-10-16T14:23:18;11.27;;;7.38;;
41043;SDS011;51680;49.806;18.774;2022-10-16T14:26:23;10.70;;;6.70;;
41043;SDS011;51680;49.806;18.774;2022-10-16T14:29:28;13.65;;;7.60;;
41043;SDS011;51680;49.806;18.774;2022-10-16T14:32:31;17.42;;;7.00;;
41043;SDS011;51680;49.806;18.774;2022-10-16T14:35:33;12.57;;;8.23;;
41043;SDS011;51680;49.806;18.774;2022-10-16T14:38:39;12.40;;;7.40;;
41043;SDS011;51680;49.806;18.774;2022-10-16T14:41:45;16.77;;;7.95;;
41043;SDS011;51680;49.806;18.774;2022-10-16T14:44:48;12.98;;;7.60;;
41043;SDS011;51680;49.806;18.774;2022-10-16T14:47:53;14.45;;;7.35;;
41043;SDS011;51680;49.806;18.774;2022-10-16T14:50:57;13.30;;;7.32;;
41043;SDS011;51680;49.806;18.774;2022-10-16T14:54:00;10.27;;;7.57;;
41043;SDS011;51680;49.806;18.774;2022-10-16T14:57:03;10.80;;;7.90;;
41043;SDS011;51680;49.806;18.774;2022-10-16T15:00:08;11.98;;;7.80;;
41043;SDS011;51680;49.806;18.774;2022-10-16T15:03:15;11.10;;;7.90;;
41043;SDS011;51680;49.806;18.774;2022-10-16T15:06:17;13.02;;;7.75;;
41043;SDS011;51680;49.806;18.774;2022-10-16T15:09:20;12.57;;;7.25;;
41043;SDS011;51680;49.806;18.774;2022-10-16T15:12:22;13.88;;;8.27;;
41043;SDS011;51680;49.806;18.774;2022-10-16T15:15:25;15.63;;;8.10;;
41043;SDS011;51680;49.806;18.774;2022-10-16T15:18:33;15.73;;;8.30;;
41043;SDS011;51680;49.806;18.774;2022-10-16T15:21:35;17.58;;;8.27;;
41043;SDS011;51680;49.806;18.774;2022-10-16T15:24:57;12.85;;;8.00;;
41043;SDS011;51680;49.806;18.774;2022-10-16T15:27:58;10.30;;;7.43;;
41043;SDS011;51680;49.806;18.774;2022-10-16T15:31:01;11.27;;;7.47;;
41043;SDS011;51680;49.806;18.774;2022-10-16T15:34:05;14.48;;;8.30;;
41043;SDS011;51680;49.806;18.774;2022-10-16T15:37:08;11.05;;;7.55;;
41043;SDS011;51680;49.806;18.774;2022-10-16T15:40:13;21.02;;;8.40;;
41043;SDS011;51680;49.806;18.774;2022-10-16T15:43:16;11.68;;;7.72;;
41043;SDS011;51680;49.806;18.774;2022-10-16T15:46:19;10.10;;;7.03;;
41043;SDS011;51680;49.806;18.774;2022-10-16T15:49:21;11.57;;;7.68;;
41043;SDS011;51680;49.806;18.774;2022-10-16T15:52:23;12.50;;;7.88;;
41043;SDS011;51680;49.806;18.774;2022-10-16T15:55:26;16.55;;;7.75;;
41043;SDS011;51680;49.806;18.774;2022-10-16T15:58:28;11.30;;;8.00;;
41043;SDS011;51680;49.806;18.774;2022-10-16T16:01:31;12.93;;;7.78;;
41043;SDS011;51680;49.806;18.774;2022-10-16T16:04:33;10.90;;;8.00;;
41043;SDS011;51680;49.806;18.774;2022-10-16T16:07:36;14.55;;;7.78;;
41043;SDS011;51680;49.806;18.774;2022-10-16T16:10:40;13.07;;;7.80;;
41043;SDS011;51680;49.806;18.774;2022-10-16T16:13:42;13.77;;;7.87;;
41043;SDS011;51680;49.806;18.774;2022-10-16T16:16:43;12.48;;;8.05;;
41043;SDS011;51680;49.806;18.774;2022-10-16T16:19:45;10.90;;;7.68;;
41043;SDS011;51680;49.806;18.774;2022-10-16T16:22:47;11.55;;;7.65;;
41043;SDS011;51680;49.806;18.774;2022-10-16T16:29:10;10.07;;;6.72;;
41043;SDS011;51680;49.806;18.774;2022-10-16T16:32:13;10.93;;;7.65;;
41043;SDS011;51680;49.806;18.774;2022-10-16T16:35:15;11.60;;;6.47;;
41043;SDS011;51680;49.806;18.774;2022-10-16T16:38:17;12.30;;;7.70;;
41043;SDS011;51680;49.806;18.774;2022-10-16T16:41:21;14.60;;;7.47;;
41043;SDS011;51680;49.806;18.774;2022-10-16T16:44:25;12.68;;;7.72;;
41043;SDS011;51680;49.806;18.774;2022-10-16T16:47:26;12.88;;;7.53;;
41043;SDS011;51680;49.806;18.774;2022-10-16T16:50:47;12.45;;;7.40;;
41043;SDS011;51680;49.806;18.774;2022-10-16T16:53:50;12.13;;;7.47;;
41043;SDS011;51680;49.806;18.774;2022-10-16T16:56:54;12.20;;;7.70;;
41043;SDS011;51680;49.806;18.774;2022-10-16T16:59:56;14.00;;;6.97;;
41043;SDS011;51680;49.806;18.774;2022-10-16T17:02:58;15.32;;;6.90;;
41043;SDS011;51680;49.806;18.774;2022-10-16T17:06:00;12.73;;;7.50;;
41043;SDS011;51680;49.806;18.774;2022-10-16T17:09:04;12.07;;;7.93;;
41043;SDS011;51680;49.806;18.774;2022-10-16T17:12:08;13.55;;;8.30;;
41043;SDS011;51680;49.806;18.774;2022-10-16T17:15:10;11.70;;;7.73;;
41043;SDS011;51680;49.806;18.774;2022-10-16T17:18:11;19.73;;;6.97;;
41043;SDS011;51680;49.806;18.774;2022-10-16T17:21:13;12.68;;;7.90;;
41043;SDS011;51680;49.806;18.774;2022-10-16T17:24:15;12.05;;;7.75;;
41043;SDS011;51680;49.806;18.774;2022-10-16T17:27:20;13.18;;;8.45;;
41043;SDS011;51680;49.806;18.774;2022-10-16T17:30:22;12.57;;;8.10;;
41043;SDS011;51680;49.806;18.774;2022-10-16T17:33:24;12.82;;;8.25;;
41043;SDS011;51680;49.806;18.774;2022-10-16T17:36:26;14.45;;;8.38;;
41043;SDS011;51680;49.806;18.774;2022-10-16T17:39:30;17.60;;;8.80;;
41043;SDS011;51680;49.806;18.774;2022-10-16T17:42:33;14.43;;;8.10;;
41043;SDS011;51680;49.806;18.774;2022-10-16T17:45:35;16.80;;;9.00;;
41043;SDS011;51680;49.806;18.774;2022-10-16T17:48:39;19.90;;;8.20;;
41043;SDS011;51680;49.806;18.774;2022-10-16T17:51:42;14.77;;;9.13;;
41043;SDS011;51680;49.806;18.774;2022-10-16T17:54:44;12.45;;;8.75;;
41043;SDS011;51680;49.806;18.774;2022-10-16T17:57:49;15.93;;;8.90;;
41043;SDS011;51680;49.806;18.774;2022-10-16T18:00:52;15.93;;;8.93;;
41043;SDS011;51680;49.806;18.774;2022-10-16T18:03:54;15.50;;;8.65;;
41043;SDS011;51680;49.806;18.774;2022-10-16T18:06:58;14.38;;;9.07;;
41043;SDS011;51680;49.806;18.774;2022-10-16T18:10:00;16.67;;;9.13;;
41043;SDS011;51680;49.806;18.774;2022-10-16T18:13:07;14.45;;;8.60;;
41043;SDS011;51680;49.806;18.774;2022-10-16T18:16:09;11.87;;;8.47;;
41043;SDS011;51680;49.806;18.774;2022-10-16T18:19:13;12.25;;;8.60;;